Mead, NE (68041)

10:03 PM CST on February 10, 2016 (GMT -0600)
APRSWXNET | | Change Station
CLOSE
Current Station
Personal Weather Station
Location: Yutan, NE
Elevation: 1194 ft
Nearby Weather Stations

Elev 1194 ft 41.23 °N, 96.46 °W | Updated 15 minutes ago

Overcast
Overcast
24 °F
Feels Like 24 °F
N
0
Wind Variable Wind from ENE
Gusts 4.0 mph

Today
High -- | Low -- °F
--% Chance of Precip.
Yesterday
High -- | Low -- °F
Precip. -- in
Pressure 30.13 in
Visibility 10.0 miles
Clouds Overcast 3600 ft
Windchill 24 °F
Dew Point 21 °F
Humidity 89%
Rainfall in
Snow Depth Not available.
7:27 AM 5:53 PM
Waxing Crescent, 9% visible
METAR KAHQ 110355Z AUTO 02009KT 10SM OVC036 M05/M07 A3013 RMK AO2 T10501070
Pressure 30.13 in
Visibility 10.0 miles
Clouds Overcast 3600 ft
Windchill 24 °F
Dew Point 21 °F
Humidity 89%
Rainfall in
Snow Depth Not available.
7:27 AM 5:53 PM
Waxing Crescent, 9% visible
METAR KAHQ 110355Z AUTO 02009KT 10SM OVC036 M05/M07 A3013 RMK AO2 T10501070

10-Day Weather Forecast

Almanac

Astronomy

Feb. 10, 2016 Rise Set
Actual Time
Civil Twilight
Nautical Twilight
Astronomical Twilight
Moon
Length of Visible Light
Length of Day
Tomorrow will be .
, % of the Moon is Illuminated

Today's Extremes

State Highs State Lows

Community

WunderPhotos

Upload Photos

1,892,007 photos uploaded!

WunderBlog® & News

Nearby

Air Quality

  Air Quality AQ Index Pollutant
Not available.

Snow Depth

Station Depth Elevation

Earthquake Activity

City Distance Mag. Time & Date
Minimum magnitude displayed is 2.5.

Coastal Water Temperatures

Place Temperature

Stations

Nearby Weather Stations

Station Location Temp. Windchill Dew Point Humidity Wind Precip. Elev Updated Type
                   

Watches & Warnings

There are currently no watches in effect.